sensor_id;sensor_type;location;lat;lon;timestamp;pressure;altitude;pressure_sealevel;temperature;humidity
70902;BME280;58548;47.210;8.618;2022-09-12T00:01:54;94218.00;;;19.84;41.96
70902;BME280;58548;47.210;8.618;2022-09-12T00:04:20;94253.03;;;20.03;42.37
70902;BME280;58548;47.210;8.618;2022-09-12T00:06:49;94250.94;;;20.06;41.90
70902;BME280;58548;47.210;8.618;2022-09-12T00:09:19;94197.63;;;19.85;41.78
70902;BME280;58548;47.210;8.618;2022-09-12T00:11:52;94211.34;;;19.82;41.90
70902;BME280;58548;47.210;8.618;2022-09-12T00:14:20;94242.81;;;19.95;41.83
70902;BME280;58548;47.210;8.618;2022-09-12T00:16:48;94245.97;;;19.92;41.45
70902;BME280;58548;47.210;8.618;2022-09-12T00:19:14;94191.25;;;19.47;42.04
70902;BME280;58548;47.210;8.618;2022-09-12T00:21:42;94210.50;;;19.59;42.21
70902;BME280;58548;47.210;8.618;2022-09-12T00:24:09;94209.38;;;19.55;42.33
70902;BME280;58548;47.210;8.618;2022-09-12T00:26:43;94244.53;;;19.67;42.42
70902;BME280;58548;47.210;8.618;2022-09-12T00:29:20;94198.16;;;19.48;42.00
70902;BME280;58548;47.210;8.618;2022-09-12T00:31:50;94230.56;;;19.55;41.70
70902;BME280;58548;47.210;8.618;2022-09-12T00:34:18;94237.47;;;19.56;41.54
70902;BME280;58548;47.210;8.618;2022-09-12T00:36:44;94232.34;;;19.49;42.04
70902;BME280;58548;47.210;8.618;2022-09-12T00:39:16;94233.13;;;19.50;42.04
70902;BME280;58548;47.210;8.618;2022-09-12T00:41:47;94193.81;;;19.24;41.65
70902;BME280;58548;47.210;8.618;2022-09-12T00:49:30;94228.16;;;19.36;41.33
70902;BME280;58548;47.210;8.618;2022-09-12T00:54:47;94198.16;;;19.13;42.29
70902;BME280;58548;47.210;8.618;2022-09-12T00:57:21;94193.34;;;19.10;42.06
70902;BME280;58548;47.210;8.618;2022-09-12T01:00:18;94182.13;;;19.03;42.29
70902;BME280;58548;47.210;8.618;2022-09-12T01:02:48;94210.19;;;19.21;42.63
70902;BME280;58548;47.210;8.618;2022-09-12T01:05:22;94216.22;;;19.17;42.33
70902;BME280;58548;47.210;8.618;2022-09-12T01:07:51;94215.66;;;19.14;43.06
70902;BME280;58548;47.210;8.618;2022-09-12T01:10:18;94190.44;;;18.95;43.16
70902;BME280;58548;47.210;8.618;2022-09-12T01:12:45;94170.66;;;18.86;43.09
70902;BME280;58548;47.210;8.618;2022-09-12T01:15:13;94213.81;;;19.15;42.59
70902;BME280;58548;47.210;8.618;2022-09-12T01:17:48;94205.53;;;19.11;42.40
70902;BME280;58548;47.210;8.618;2022-09-12T01:23:52;94209.38;;;19.04;41.98
70902;BME280;58548;47.210;8.618;2022-09-12T01:34:59;94204.59;;;18.89;42.37
70902;BME280;58548;47.210;8.618;2022-09-12T01:46:08;94193.41;;;18.98;42.38
70902;BME280;58548;47.210;8.618;2022-09-12T01:48:59;94129.25;;;18.45;42.80
70902;BME280;58548;47.210;8.618;2022-09-12T01:54:15;94166.00;;;18.59;42.84
70902;BME280;58548;47.210;8.618;2022-09-12T01:56:53;94151.44;;;18.44;42.25
70902;BME280;58548;47.210;8.618;2022-09-12T01:59:33;94165.91;;;18.53;42.64
70902;BME280;58548;47.210;8.618;2022-09-12T02:07:25;94158.59;;;18.44;42.84
70902;BME280;58548;47.210;8.618;2022-09-12T02:10:22;94157.78;;;18.43;43.25
70902;BME280;58548;47.210;8.618;2022-09-12T02:12:58;94180.97;;;18.53;43.44
70902;BME280;58548;47.210;8.618;2022-09-12T02:15:33;94160.50;;;18.48;43.28
70902;BME280;58548;47.210;8.618;2022-09-12T02:18:04;94153.44;;;18.37;43.21
70902;BME280;58548;47.210;8.618;2022-09-12T02:20:37;94139.94;;;18.21;43.45
70902;BME280;58548;47.210;8.618;2022-09-12T02:23:11;94179.28;;;18.47;43.56
70902;BME280;58548;47.210;8.618;2022-09-12T02:25:43;94143.63;;;18.20;43.22
70902;BME280;58548;47.210;8.618;2022-09-12T02:28:17;94129.97;;;18.12;43.20
70902;BME280;58548;47.210;8.618;2022-09-12T02:30:58;94137.53;;;18.20;43.23
70902;BME280;58548;47.210;8.618;2022-09-12T02:33:35;94151.63;;;18.26;43.32
70902;BME280;58548;47.210;8.618;2022-09-12T02:36:20;94163.44;;;18.35;42.96
70902;BME280;58548;47.210;8.618;2022-09-12T02:38:54;94169.06;;;18.38;43.33
70902;BME280;58548;47.210;8.618;2022-09-12T02:41:24;94150.03;;;18.24;43.13
70902;BME280;58548;47.210;8.618;2022-09-12T02:43:55;94147.31;;;18.19;43.38
70902;BME280;58548;47.210;8.618;2022-09-12T02:46:31;94171.53;;;18.28;43.42
70902;BME280;58548;47.210;8.618;2022-09-12T02:49:00;94164.84;;;18.26;43.21
70902;BME280;58548;47.210;8.618;2022-09-12T02:51:29;94112.56;;;17.99;43.75
70902;BME280;58548;47.210;8.618;2022-09-12T02:53:56;94162.00;;;18.27;43.27
70902;BME280;58548;47.210;8.618;2022-09-12T02:56:27;94144.25;;;18.11;43.04
70902;BME280;58548;47.210;8.618;2022-09-12T02:59:00;94141.81;;;18.09;43.56
70902;BME280;58548;47.210;8.618;2022-09-12T03:09:44;94167.78;;;18.12;42.85
70902;BME280;58548;47.210;8.618;2022-09-12T03:14:59;94157.91;;;18.07;43.23
70902;BME280;58548;47.210;8.618;2022-09-12T03:17:56;94162.50;;;18.12;42.96
70902;BME280;58548;47.210;8.618;2022-09-12T03:23:41;94142.28;;;17.94;43.89
70902;BME280;58548;47.210;8.618;2022-09-12T03:26:25;94154.91;;;18.04;43.40
70902;BME280;58548;47.210;8.618;2022-09-12T03:28:56;94114.22;;;17.76;43.71
70902;BME280;58548;47.210;8.618;2022-09-12T03:31:24;94158.59;;;18.03;44.00
70902;BME280;58548;47.210;8.618;2022-09-12T03:33:50;94167.03;;;18.00;42.96
70902;BME280;58548;47.210;8.618;2022-09-12T03:36:24;94150.66;;;17.91;43.48
70902;BME280;58548;47.210;8.618;2022-09-12T03:38:50;94165.03;;;17.95;42.78
70902;BME280;58548;47.210;8.618;2022-09-12T03:41:19;94141.72;;;17.80;43.45
70902;BME280;58548;47.210;8.618;2022-09-12T03:43:48;94160.34;;;17.85;43.38
70902;BME280;58548;47.210;8.618;2022-09-12T03:46:16;94113.09;;;17.60;43.39
70902;BME280;58548;47.210;8.618;2022-09-12T03:48:45;94168.47;;;17.96;43.38
70902;BME280;58548;47.210;8.618;2022-09-12T03:51:11;94128.22;;;17.64;43.71
70902;BME280;58548;47.210;8.618;2022-09-12T03:53:37;94168.38;;;17.90;43.05
70902;BME280;58548;47.210;8.618;2022-09-12T03:56:07;94133.88;;;17.68;43.72
70902;BME280;58548;47.210;8.618;2022-09-12T03:58:33;94166.19;;;17.87;43.63
70902;BME280;58548;47.210;8.618;2022-09-12T04:01:09;94171.94;;;17.84;43.84
70902;BME280;58548;47.210;8.618;2022-09-12T04:03:38;94133.38;;;17.59;43.52
70902;BME280;58548;47.210;8.618;2022-09-12T04:06:08;94130.66;;;17.54;43.36
70902;BME280;58548;47.210;8.618;2022-09-12T04:08:43;94143.94;;;17.59;43.44
70902;BME280;58548;47.210;8.618;2022-09-12T04:11:13;94172.19;;;17.71;43.63
70902;BME280;58548;47.210;8.618;2022-09-12T04:13:42;94125.16;;;17.44;43.70
70902;BME280;58548;47.210;8.618;2022-09-12T04:16:08;94166.00;;;17.77;43.93
70902;BME280;58548;47.210;8.618;2022-09-12T04:18:35;94170.72;;;17.75;43.66
70902;BME280;58548;47.210;8.618;2022-09-12T04:21:13;94151.41;;;17.62;43.72
70902;BME280;58548;47.210;8.618;2022-09-12T04:23:39;94168.53;;;17.72;43.52
70902;BME280;58548;47.210;8.618;2022-09-12T04:26:11;94149.91;;;17.67;43.52
70902;BME280;58548;47.210;8.618;2022-09-12T04:28:40;94123.09;;;17.46;44.06
70902;BME280;58548;47.210;8.618;2022-09-12T04:31:08;94163.56;;;17.75;44.22
70902;BME280;58548;47.210;8.618;2022-09-12T04:33:38;94166.00;;;17.77;43.98
70902;BME280;58548;47.210;8.618;2022-09-12T04:36:09;94148.19;;;17.60;43.30
70902;BME280;58548;47.210;8.618;2022-09-12T04:38:36;94157.28;;;17.64;43.52
70902;BME280;58548;47.210;8.618;2022-09-12T04:41:23;94146.13;;;17.62;43.77
70902;BME280;58548;47.210;8.618;2022-09-12T04:43:57;94155.78;;;17.69;43.90
70902;BME280;58548;47.210;8.618;2022-09-12T04:46:25;94164.28;;;17.71;43.71
70902;BME280;58548;47.210;8.618;2022-09-12T04:48:55;94172.41;;;17.81;43.38
70902;BME280;58548;47.210;8.618;2022-09-12T04:51:32;94129.38;;;17.57;43.65
70902;BME280;58548;47.210;8.618;2022-09-12T04:54:03;94155.44;;;17.65;43.68
70902;BME280;58548;47.210;8.618;2022-09-12T04:56:35;94165.31;;;17.70;43.01
70902;BME280;58548;47.210;8.618;2022-09-12T04:59:01;94163.81;;;17.62;43.45
70902;BME280;58548;47.210;8.618;2022-09-12T05:01:28;94134.09;;;17.43;43.35
70902;BME280;58548;47.210;8.618;2022-09-12T05:03:56;94173.81;;;17.72;43.71
70902;BME280;58548;47.210;8.618;2022-09-12T05:06:25;94178.28;;;17.71;43.33
70902;BME280;58548;47.210;8.618;2022-09-12T05:08:52;94160.94;;;17.63;43.61
70902;BME280;58548;47.210;8.618;2022-09-12T05:11:26;94168.41;;;17.67;43.56
70902;BME280;58548;47.210;8.618;2022-09-12T05:13:53;94155.00;;;17.56;43.77
70902;BME280;58548;47.210;8.618;2022-09-12T05:16:23;94182.63;;;17.77;44.57
70902;BME280;58548;47.210;8.618;2022-09-12T05:18:54;94144.19;;;17.58;44.23
70902;BME280;58548;47.210;8.618;2022-09-12T05:21:21;94177.34;;;17.89;44.56
70902;BME280;58548;47.210;8.618;2022-09-12T05:23:54;94157.69;;;17.85;44.60
70902;BME280;58548;47.210;8.618;2022-09-12T05:26:22;94147.59;;;17.82;44.72
70902;BME280;58548;47.210;8.618;2022-09-12T05:28:51;94156.88;;;17.97;43.97
70902;BME280;58548;47.210;8.618;2022-09-12T05:31:24;94174.09;;;18.11;44.11
70902;BME280;58548;47.210;8.618;2022-09-12T05:33:52;94158.13;;;18.06;44.39
70902;BME280;58548;47.210;8.618;2022-09-12T05:36:23;94179.81;;;18.20;44.63
70902;BME280;58548;47.210;8.618;2022-09-12T05:38:49;94150.88;;;18.13;45.00
70902;BME280;58548;47.210;8.618;2022-09-12T05:41:23;94176.84;;;18.45;45.20
70902;BME280;58548;47.210;8.618;2022-09-12T05:43:53;94191.47;;;18.65;44.85
70902;BME280;58548;47.210;8.618;2022-09-12T05:46:24;94139.25;;;18.43;45.13
70902;BME280;58548;47.210;8.618;2022-09-12T05:48:51;94195.03;;;18.88;45.23
70902;BME280;58548;47.210;8.618;2022-09-12T05:51:23;94184.81;;;18.91;45.72
70902;BME280;58548;47.210;8.618;2022-09-12T05:54:01;94200.88;;;19.19;45.16
70902;BME280;58548;47.210;8.618;2022-09-12T05:56:31;94203.69;;;19.29;45.15
70902;BME280;58548;47.210;8.618;2022-09-12T05:59:00;94172.34;;;19.21;44.55
70902;BME280;58548;47.210;8.618;2022-09-12T06:01:27;94158.69;;;19.29;44.80
70902;BME280;58548;47.210;8.618;2022-09-12T06:03:58;94183.94;;;19.54;44.79
70902;BME280;58548;47.210;8.618;2022-09-12T06:06:34;94188.09;;;19.67;45.01
70902;BME280;58548;47.210;8.618;2022-09-12T06:09:03;94158.47;;;19.70;45.18
70902;BME280;58548;47.210;8.618;2022-09-12T06:11:34;94190.03;;;20.11;45.51
70902;BME280;58548;47.210;8.618;2022-09-12T06:14:03;94205.25;;;20.43;45.27
70902;BME280;58548;47.210;8.618;2022-09-12T06:16:31;94196.44;;;20.64;45.19
70902;BME280;58548;47.210;8.618;2022-09-12T06:19:11;94189.78;;;20.84;45.11
70902;BME280;58548;47.210;8.618;2022-09-12T06:21:38;94165.44;;;20.92;45.56
70902;BME280;58548;47.210;8.618;2022-09-12T06:24:04;94145.09;;;21.03;44.69
70902;BME280;58548;47.210;8.618;2022-09-12T06:26:35;94168.16;;;21.35;44.99
70902;BME280;58548;47.210;8.618;2022-09-12T06:29:02;94188.28;;;21.64;44.11
70902;BME280;58548;47.210;8.618;2022-09-12T06:31:32;94174.56;;;21.77;43.91
70902;BME280;58548;47.210;8.618;2022-09-12T06:34:01;94200.78;;;22.11;43.93
70902;BME280;58548;47.210;8.618;2022-09-12T06:36:41;94189.69;;;22.30;44.85
70902;BME280;58548;47.210;8.618;2022-09-12T06:39:10;94181.59;;;22.83;44.88
70902;BME280;58548;47.210;8.618;2022-09-12T06:41:37;94172.06;;;23.60;43.18
70902;BME280;58548;47.210;8.618;2022-09-12T06:44:08;94204.28;;;24.60;42.38
70902;BME280;58548;47.210;8.618;2022-09-12T06:46:35;94190.44;;;25.38;40.96
70902;BME280;58548;47.210;8.618;2022-09-12T06:49:03;94170.31;;;26.04;39.28
70902;BME280;58548;47.210;8.618;2022-09-12T06:51:32;94182.53;;;26.98;37.27
70902;BME280;58548;47.210;8.618;2022-09-12T06:54:02;94204.63;;;27.94;35.52
70902;BME280;58548;47.210;8.618;2022-09-12T06:56:31;94180.78;;;28.48;34.63
70902;BME280;58548;47.210;8.618;2022-09-12T06:58:59;94198.06;;;29.43;33.03
70902;BME280;58548;47.210;8.618;2022-09-12T07:01:29;94186.97;;;29.99;31.78
70902;BME280;58548;47.210;8.618;2022-09-12T07:04:00;94205.94;;;30.75;31.31
70902;BME280;58548;47.210;8.618;2022-09-12T07:07:02;94191.88;;;31.22;27.77
70902;BME280;58548;47.210;8.618;2022-09-12T07:09:26;94184.72;;;31.43;27.58
70902;BME280;58548;47.210;8.618;2022-09-12T07:11:52;94194.84;;;31.73;27.33
70902;BME280;58548;47.210;8.618;2022-09-12T07:14:18;94199.00;;;32.18;26.45
70902;BME280;58548;47.210;8.618;2022-09-12T07:16:46;94208.31;;;32.68;26.22
70902;BME280;58548;47.210;8.618;2022-09-12T07:19:14;94215.38;;;33.12;24.98
70902;BME280;58548;47.210;8.618;2022-09-12T07:21:40;94212.34;;;33.68;24.92
70902;BME280;58548;47.210;8.618;2022-09-12T07:24:08;94194.00;;;33.86;22.75
70902;BME280;58548;47.210;8.618;2022-09-12T07:26:34;94192.81;;;34.33;23.40
70902;BME280;58548;47.210;8.618;2022-09-12T07:29:03;94205.25;;;34.84;21.86
70902;BME280;58548;47.210;8.618;2022-09-12T07:31:31;94185.56;;;34.99;21.20
70902;BME280;58548;47.210;8.618;2022-09-12T07:33:57;94209.31;;;35.43;20.67
70902;BME280;58548;47.210;8.618;2022-09-12T07:36:24;94199.00;;;35.93;20.56
70902;BME280;58548;47.210;8.618;2022-09-12T07:38:55;94194.66;;;36.37;19.88
70902;BME280;58548;47.210;8.618;2022-09-12T07:41:32;94202.69;;;36.81;20.20
70902;BME280;58548;47.210;8.618;2022-09-12T07:44:02;94193.00;;;37.20;18.71
70902;BME280;58548;47.210;8.618;2022-09-12T07:46:30;94189.31;;;37.48;18.94
70902;BME280;58548;47.210;8.618;2022-09-12T07:49:00;94184.94;;;37.86;18.18
70902;BME280;58548;47.210;8.618;2022-09-12T07:51:29;94182.97;;;38.29;18.14
70902;BME280;58548;47.210;8.618;2022-09-12T07:53:58;94192.63;;;38.77;17.78
70902;BME280;58548;47.210;8.618;2022-09-12T07:56:27;94175.66;;;38.87;17.90
70902;BME280;58548;47.210;8.618;2022-09-12T07:58:57;94163.28;;;39.28;16.53
70902;BME280;58548;47.210;8.618;2022-09-12T08:01:23;94194.53;;;39.61;16.43
70902;BME280;58548;47.210;8.618;2022-09-12T08:03:56;94182.78;;;39.57;15.61
70902;BME280;58548;47.210;8.618;2022-09-12T08:06:24;94174.72;;;39.71;16.26
70902;BME280;58548;47.210;8.618;2022-09-12T08:08:54;94167.81;;;39.81;16.28
70902;BME280;58548;47.210;8.618;2022-09-12T08:11:22;94181.50;;;39.85;16.24
70902;BME280;58548;47.210;8.618;2022-09-12T08:13:49;94189.22;;;40.17;15.37
70902;BME280;58548;47.210;8.618;2022-09-12T08:16:19;94202.75;;;40.44;14.91
70902;BME280;58548;47.210;8.618;2022-09-12T08:18:49;94205.25;;;40.63;14.84
70902;BME280;58548;47.210;8.618;2022-09-12T08:21:23;94183.09;;;40.83;14.28
70902;BME280;58548;47.210;8.618;2022-09-12T08:23:53;94190.00;;;41.33;14.45
70902;BME280;58548;47.210;8.618;2022-09-12T08:26:22;94154.69;;;41.09;13.96
70902;BME280;58548;47.210;8.618;2022-09-12T08:28:48;94197.16;;;41.55;14.08
70902;BME280;58548;47.210;8.618;2022-09-12T08:31:19;94197.88;;;41.45;14.17
70902;BME280;58548;47.210;8.618;2022-09-12T08:33:46;94191.56;;;41.30;14.08
70902;BME280;58548;47.210;8.618;2022-09-12T08:36:14;94188.56;;;41.57;14.39
70902;BME280;58548;47.210;8.618;2022-09-12T08:38:43;94176.06;;;41.67;14.44
70902;BME280;58548;47.210;8.618;2022-09-12T08:41:29;94208.22;;;41.92;14.09
70902;BME280;58548;47.210;8.618;2022-09-12T08:47:27;94213.75;;;42.28;13.93
70902;BME280;58548;47.210;8.618;2022-09-12T08:50:09;94218.88;;;42.51;13.52
70902;BME280;58548;47.210;8.618;2022-09-12T08:53:03;94217.69;;;42.77;13.15
70902;BME280;58548;47.210;8.618;2022-09-12T08:55:45;94218.47;;;42.49;13.19
70902;BME280;58548;47.210;8.618;2022-09-12T08:58:19;94217.31;;;42.50;13.84
70902;BME280;58548;47.210;8.618;2022-09-12T09:06:56;94208.97;;;43.26;13.33
70902;BME280;58548;47.210;8.618;2022-09-12T09:15:25;94196.47;;;42.92;13.20
70902;BME280;58548;47.210;8.618;2022-09-12T09:20:48;94207.25;;;43.61;12.57
70902;BME280;58548;47.210;8.618;2022-09-12T09:23:23;94183.81;;;43.38;13.02
70902;BME280;58548;47.210;8.618;2022-09-12T09:29:01;94192.47;;;43.33;12.70
70902;BME280;58548;47.210;8.618;2022-09-12T09:31:34;94170.13;;;43.24;12.51
70902;BME280;58548;47.210;8.618;2022-09-12T09:34:13;94181.44;;;43.37;12.65
70902;BME280;58548;47.210;8.618;2022-09-12T09:36:51;94196.31;;;43.50;12.94
70902;BME280;58548;47.210;8.618;2022-09-12T09:44:57;94183.72;;;44.24;13.14
70902;BME280;58548;47.210;8.618;2022-09-12T09:47:25;94180.75;;;44.49;13.16
70902;BME280;58548;47.210;8.618;2022-09-12T09:49:50;94181.03;;;44.62;12.01
70902;BME280;58548;47.210;8.618;2022-09-12T09:52:26;94201.59;;;44.96;12.23
70902;BME280;58548;47.210;8.618;2022-09-12T09:55:04;94201.16;;;45.01;11.57
70902;BME280;58548;47.210;8.618;2022-09-12T09:57:43;94202.16;;;45.14;12.13
70902;BME280;58548;47.210;8.618;2022-09-12T10:05:33;94208.09;;;44.71;12.35
70902;BME280;58548;47.210;8.618;2022-09-12T10:08:01;94201.53;;;45.03;12.35
70902;BME280;58548;47.210;8.618;2022-09-12T10:10:31;94179.03;;;44.66;12.22
70902;BME280;58548;47.210;8.618;2022-09-12T10:13:16;94200.94;;;44.84;12.00
70902;BME280;58548;47.210;8.618;2022-09-12T10:16:00;94185.63;;;44.76;11.97
70902;BME280;58548;47.210;8.618;2022-09-12T10:18:38;94197.13;;;45.09;12.04
70902;BME280;58548;47.210;8.618;2022-09-12T10:21:30;94194.59;;;44.87;11.96
70902;BME280;58548;47.210;8.618;2022-09-12T10:26:43;94184.88;;;44.72;12.75
70902;BME280;58548;47.210;8.618;2022-09-12T10:29:20;94192.69;;;44.77;12.43
70902;BME280;58548;47.210;8.618;2022-09-12T10:31:53;94124.38;;;43.66;13.11
70902;BME280;58548;47.210;8.618;2022-09-12T10:34:24;94181.97;;;43.88;12.91
70902;BME280;58548;47.210;8.618;2022-09-12T10:36:59;94170.34;;;43.62;13.05
70902;BME280;58548;47.210;8.618;2022-09-12T10:39:26;94181.25;;;43.84;13.41
70902;BME280;58548;47.210;8.618;2022-09-12T10:41:55;94188.16;;;44.03;13.42
70902;BME280;58548;47.210;8.618;2022-09-12T10:44:28;94190.66;;;43.83;12.80
70902;BME280;58548;47.210;8.618;2022-09-12T10:46:59;94167.59;;;43.62;12.94
70902;BME280;58548;47.210;8.618;2022-09-12T10:49:47;94181.31;;;43.69;13.75
70902;BME280;58548;47.210;8.618;2022-09-12T10:52:27;94165.69;;;43.48;13.81
70902;BME280;58548;47.210;8.618;2022-09-12T10:54:55;94181.91;;;43.24;14.07
70902;BME280;58548;47.210;8.618;2022-09-12T11:00:14;94177.50;;;43.42;14.42
70902;BME280;58548;47.210;8.618;2022-09-12T11:17:35;94162.53;;;43.50;13.72
70902;BME280;58548;47.210;8.618;2022-09-12T11:25:27;94173.13;;;44.22;12.80
70902;BME280;58548;47.210;8.618;2022-09-12T11:30:38;94165.53;;;44.37;12.90
70902;BME280;58548;47.210;8.618;2022-09-12T11:33:33;94166.06;;;44.21;12.94
70902;BME280;58548;47.210;8.618;2022-09-12T11:36:26;94166.13;;;44.10;13.10
70902;BME280;58548;47.210;8.618;2022-09-12T11:39:14;94166.81;;;44.25;13.20
70902;BME280;58548;47.210;8.618;2022-09-12T11:41:44;94148.88;;;44.03;13.04
70902;BME280;58548;47.210;8.618;2022-09-12T11:44:35;94165.44;;;43.95;12.57
70902;BME280;58548;47.210;8.618;2022-09-12T11:47:10;94146.59;;;43.94;13.34
70902;BME280;58548;47.210;8.618;2022-09-12T11:49:45;94135.88;;;44.10;12.50
70902;BME280;58548;47.210;8.618;2022-09-12T11:52:25;94141.03;;;44.50;12.37
70902;BME280;58548;47.210;8.618;2022-09-12T11:55:18;94148.59;;;44.39;12.35
70902;BME280;58548;47.210;8.618;2022-09-12T11:57:54;94154.38;;;44.55;12.89
70902;BME280;58548;47.210;8.618;2022-09-12T12:00:21;94152.38;;;44.60;12.83
70902;BME280;58548;47.210;8.618;2022-09-12T12:08:00;94137.47;;;44.53;12.39
70902;BME280;58548;47.210;8.618;2022-09-12T12:10:47;94145.59;;;44.68;11.89
70902;BME280;58548;47.210;8.618;2022-09-12T12:13:16;94143.44;;;44.48;12.73
70902;BME280;58548;47.210;8.618;2022-09-12T12:15:54;94128.19;;;44.33;12.63
70902;BME280;58548;47.210;8.618;2022-09-12T12:18:26;94145.59;;;44.22;12.69
70902;BME280;58548;47.210;8.618;2022-09-12T12:20:54;94126.25;;;43.80;13.01
70902;BME280;58548;47.210;8.618;2022-09-12T12:23:25;94138.84;;;43.78;12.71
70902;BME280;58548;47.210;8.618;2022-09-12T12:25:55;94148.53;;;43.93;12.79
70902;BME280;58548;47.210;8.618;2022-09-12T12:31:16;94125.47;;;43.76;12.78
70902;BME280;58548;47.210;8.618;2022-09-12T12:36:31;94136.97;;;43.57;13.10
70902;BME280;58548;47.210;8.618;2022-09-12T12:38:58;94136.94;;;43.67;12.83
70902;BME280;58548;47.210;8.618;2022-09-12T12:43:53;94100.78;;;42.84;13.29
70902;BME280;58548;47.210;8.618;2022-09-12T12:46:26;94127.34;;;43.16;13.70
70902;BME280;58548;47.210;8.618;2022-09-12T12:49:10;94110.22;;;42.86;13.47
70902;BME280;58548;47.210;8.618;2022-09-12T12:57:17;94111.00;;;42.65;13.78
70902;BME280;58548;47.210;8.618;2022-09-12T13:02:51;94070.72;;;41.89;13.55
70902;BME280;58548;47.210;8.618;2022-09-12T13:05:23;94061.72;;;42.03;13.90
70902;BME280;58548;47.210;8.618;2022-09-12T13:08:06;94075.41;;;42.36;13.88
70902;BME280;58548;47.210;8.618;2022-09-12T13:10:36;94102.78;;;42.72;13.90
70902;BME280;58548;47.210;8.618;2022-09-12T13:13:07;94103.13;;;42.89;14.28
70902;BME280;58548;47.210;8.618;2022-09-12T13:18:14;94087.88;;;42.66;13.66
70902;BME280;58548;47.210;8.618;2022-09-12T13:25:56;94064.06;;;42.05;14.21
70902;BME280;58548;47.210;8.618;2022-09-12T13:28:27;94074.63;;;41.88;13.94
70902;BME280;58548;47.210;8.618;2022-09-12T13:33:44;94078.03;;;41.24;14.55
70902;BME280;58548;47.210;8.618;2022-09-12T13:44:26;94071.63;;;40.80;16.05
70902;BME280;58548;47.210;8.618;2022-09-12T13:46:57;94067.41;;;41.04;14.15
70902;BME280;58548;47.210;8.618;2022-09-12T13:49:37;94047.25;;;40.57;13.60
70902;BME280;58548;47.210;8.618;2022-09-12T13:52:16;94067.19;;;40.61;14.47
70902;BME280;58548;47.210;8.618;2022-09-12T13:54:46;94026.00;;;40.28;13.90
70902;BME280;58548;47.210;8.618;2022-09-12T13:57:32;94047.34;;;40.11;14.69
70902;BME280;58548;47.210;8.618;2022-09-12T14:02:39;94044.50;;;39.48;14.50
70902;BME280;58548;47.210;8.618;2022-09-12T14:05:16;94043.09;;;39.24;14.73
70902;BME280;58548;47.210;8.618;2022-09-12T14:07:51;94051.50;;;39.08;15.32
70902;BME280;58548;47.210;8.618;2022-09-12T14:10:43;94028.31;;;38.60;15.42
70902;BME280;58548;47.210;8.618;2022-09-12T14:13:21;93982.47;;;38.09;15.36
70902;BME280;58548;47.210;8.618;2022-09-12T14:15:53;93962.16;;;37.79;16.11
70902;BME280;58548;47.210;8.618;2022-09-12T14:18:36;94035.41;;;38.08;15.51
70902;BME280;58548;47.210;8.618;2022-09-12T14:21:11;94019.38;;;37.79;16.16
70902;BME280;58548;47.210;8.618;2022-09-12T14:23:42;94045.78;;;37.75;16.07
70902;BME280;58548;47.210;8.618;2022-09-12T14:26:12;94040.84;;;37.58;15.81
70902;BME280;58548;47.210;8.618;2022-09-12T14:28:44;94014.72;;;37.33;15.80
70902;BME280;58548;47.210;8.618;2022-09-12T14:33:54;94046.16;;;37.07;17.36
70902;BME280;58548;47.210;8.618;2022-09-12T14:36:25;94028.66;;;36.89;16.93
70902;BME280;58548;47.210;8.618;2022-09-12T14:39:03;94023.53;;;36.84;16.44
70902;BME280;58548;47.210;8.618;2022-09-12T14:41:37;94028.13;;;36.60;16.90
70902;BME280;58548;47.210;8.618;2022-09-12T14:44:18;94029.66;;;36.41;17.02
70902;BME280;58548;47.210;8.618;2022-09-12T14:46:47;94045.44;;;36.35;17.42
70902;BME280;58548;47.210;8.618;2022-09-12T14:49:34;94046.47;;;36.11;18.06
70902;BME280;58548;47.210;8.618;2022-09-12T14:52:07;94044.47;;;36.08;18.07
70902;BME280;58548;47.210;8.618;2022-09-12T14:55:18;94024.41;;;35.81;18.12
70902;BME280;58548;47.210;8.618;2022-09-12T14:57:45;94031.25;;;35.74;18.35
70902;BME280;58548;47.210;8.618;2022-09-12T15:02:44;94002.06;;;35.23;18.36
70902;BME280;58548;47.210;8.618;2022-09-12T15:10:29;94033.31;;;35.17;18.82
70902;BME280;58548;47.210;8.618;2022-09-12T15:13:11;94029.38;;;34.86;20.60
70902;BME280;58548;47.210;8.618;2022-09-12T15:15:56;94013.16;;;34.73;19.78
70902;BME280;58548;47.210;8.618;2022-09-12T15:18:26;93997.53;;;34.54;20.31
70902;BME280;58548;47.210;8.618;2022-09-12T15:21:02;94016.97;;;34.56;20.07
70902;BME280;58548;47.210;8.618;2022-09-12T15:23:39;94021.84;;;34.38;20.32
70902;BME280;58548;47.210;8.618;2022-09-12T15:26:13;94017.22;;;34.39;20.09
70902;BME280;58548;47.210;8.618;2022-09-12T15:28:40;93992.78;;;34.10;20.14
70902;BME280;58548;47.210;8.618;2022-09-12T15:31:22;94019.03;;;34.22;20.79
70902;BME280;58548;47.210;8.618;2022-09-12T15:33:49;94002.03;;;34.09;19.83
70902;BME280;58548;47.210;8.618;2022-09-12T15:36:19;94018.31;;;34.09;20.20
70902;BME280;58548;47.210;8.618;2022-09-12T15:38:50;94003.84;;;33.80;20.39
70902;BME280;58548;47.210;8.618;2022-09-12T15:41:19;94004.19;;;33.66;20.61
70902;BME280;58548;47.210;8.618;2022-09-12T15:43:48;94014.00;;;33.59;22.20
70902;BME280;58548;47.210;8.618;2022-09-12T15:46:16;94028.44;;;33.50;22.20
70902;BME280;58548;47.210;8.618;2022-09-12T15:48:42;93995.38;;;33.32;23.06
70902;BME280;58548;47.210;8.618;2022-09-12T15:51:16;93998.63;;;33.26;23.41
70902;BME280;58548;47.210;8.618;2022-09-12T15:53:43;93990.00;;;33.11;22.54
70902;BME280;58548;47.210;8.618;2022-09-12T15:56:09;94006.69;;;33.01;24.06
70902;BME280;58548;47.210;8.618;2022-09-12T15:58:35;94009.06;;;33.02;23.57
70902;BME280;58548;47.210;8.618;2022-09-12T16:01:08;93980.09;;;32.69;23.89
70902;BME280;58548;47.210;8.618;2022-09-12T16:03:36;94011.53;;;32.74;24.12
70902;BME280;58548;47.210;8.618;2022-09-12T16:06:02;94010.78;;;32.52;24.62
70902;BME280;58548;47.210;8.618;2022-09-12T16:08:29;93999.22;;;32.22;24.64
70902;BME280;58548;47.210;8.618;2022-09-12T16:10:59;94002.50;;;32.06;24.76
70902;BME280;58548;47.210;8.618;2022-09-12T16:13:31;94015.97;;;32.15;24.84